Time;durP1;ratioP1;P1;durP2;ratioP2;P2;SDS_P1;SDS_P2;PMS_P1;PMS_P2;Temp;Humidity;BMP_temperature;BMP_pressure;BME280_temperature;BME280_humidity;BME280_pressure;Samples;Min_cycle;Max_cycle;Signal;HPM_P1;HPM_P2
2024/01/06 00:01:29;0.00;0.00;0.62;0.00;0.00;0.62;3.70;3.20;;;20.90;26.30;;;;;;2252077;61;20413;-57
2024/01/06 00:04:14;0.00;0.00;0.62;0.00;0.00;0.62;4.17;3.07;;;20.90;26.30;;;;;;2252574;61;20366;-59
2024/01/06 00:06:58;0.00;0.00;0.62;0.00;0.00;0.62;5.47;2.90;;;20.90;26.30;;;;;;2251951;61;20371;-60
2024/01/06 00:09:43;0.00;0.00;0.62;0.00;0.00;0.62;4.40;3.20;;;20.90;26.30;;;;;;2252224;61;20366;-60
2024/01/06 00:12:28;0.00;0.00;0.62;0.00;0.00;0.62;3.37;2.80;;;20.90;26.30;;;;;;2252019;61;20405;-57
2024/01/06 00:15:13;0.00;0.00;0.62;0.00;0.00;0.62;4.10;2.50;;;21.00;26.40;;;;;;2251699;61;20363;-62
2024/01/06 00:17:58;0.00;0.00;0.62;0.00;0.00;0.62;4.03;2.80;;;21.00;26.40;;;;;;2252337;61;20779;-53
2024/01/06 00:20:42;0.00;0.00;0.62;0.00;0.00;0.62;3.40;3.10;;;21.00;26.40;;;;;;2252129;61;20390;-58
2024/01/06 00:23:27;0.00;0.00;0.62;0.00;0.00;0.62;4.03;3.00;;;21.00;26.40;;;;;;2251512;61;20855;-60
2024/01/06 00:26:11;0.00;0.00;0.62;0.00;0.00;0.62;3.60;2.60;;;20.90;26.30;;;;;;2252178;61;20370;-59
2024/01/06 00:28:57;0.00;0.00;0.62;0.00;0.00;0.62;3.50;3.10;;;21.00;26.40;;;;;;2251675;61;20514;-58
2024/01/06 00:31:42;0.00;0.00;0.62;0.00;0.00;0.62;3.67;3.20;;;21.00;26.40;;;;;;2251471;61;20390;-58
2024/01/06 00:34:26;0.00;0.00;0.62;0.00;0.00;0.62;4.53;3.77;;;21.00;26.40;;;;;;2252956;61;20366;-59
2024/01/06 00:37:11;0.00;0.00;0.62;0.00;0.00;0.62;4.00;3.20;;;21.00;26.40;;;;;;2252529;61;20898;-58
2024/01/06 00:39:56;0.00;0.00;0.62;0.00;0.00;0.62;4.37;3.57;;;21.00;26.40;;;;;;2252833;61;20363;-60
2024/01/06 00:42:40;0.00;0.00;0.62;0.00;0.00;0.62;4.10;3.60;;;21.00;26.40;;;;;;2252520;61;20966;-58
2024/01/06 00:45:26;0.00;0.00;0.62;0.00;0.00;0.62;5.57;3.40;;;21.00;26.50;;;;;;2252680;61;21092;-60
2024/01/06 00:48:11;0.00;0.00;0.62;0.00;0.00;0.62;6.00;3.70;;;21.10;26.50;;;;;;2252974;61;20406;-60
2024/01/06 00:50:55;0.00;0.00;0.62;0.00;0.00;0.62;4.13;3.30;;;21.00;26.40;;;;;;2252599;61;20418;-60
2024/01/06 00:53:40;0.00;0.00;0.62;0.00;0.00;0.62;5.30;3.57;;;21.00;26.40;;;;;;2642095;45;20423;-57
2024/01/06 00:56:24;0.00;0.00;0.62;0.00;0.00;0.62;4.00;3.17;;;21.00;26.40;;;;;;2248995;61;20399;-58
2024/01/06 00:59:10;0.00;0.00;0.62;0.00;0.00;0.62;4.87;3.33;;;21.00;26.50;;;;;;2248415;61;20448;-58
2024/01/06 01:01:56;0.00;0.00;0.62;0.00;0.00;0.62;4.53;2.93;;;21.10;26.50;;;;;;2248573;61;20533;-58
2024/01/06 01:04:40;0.00;0.00;0.62;0.00;0.00;0.62;4.70;3.40;;;21.10;26.50;;;;;;2248795;61;20402;-59
2024/01/06 01:07:26;0.00;0.00;0.62;0.00;0.00;0.62;4.47;3.37;;;21.10;26.50;;;;;;2248465;61;20847;-59
2024/01/06 01:10:11;0.00;0.00;0.62;0.00;0.00;0.62;5.80;3.90;;;21.10;26.50;;;;;;2248972;61;20387;-57
2024/01/06 01:12:56;0.00;0.00;0.62;0.00;0.00;0.62;3.57;3.20;;;21.10;26.50;;;;;;2250639;61;20474;-58
2024/01/06 01:15:41;0.00;0.00;0.62;0.00;0.00;0.62;3.47;2.97;;;21.10;26.50;;;;;;2252728;61;20366;-55
2024/01/06 01:18:27;0.00;0.00;0.62;0.00;0.00;0.62;4.00;3.43;;;21.10;26.50;;;;;;2252793;61;20402;-57
2024/01/06 01:21:15;0.00;0.00;0.62;0.00;0.00;0.62;4.20;2.90;;;21.10;26.50;;;;;;2252435;61;20831;-58
2024/01/06 01:24:00;0.00;0.00;0.62;0.00;0.00;0.62;3.40;2.90;;;21.10;26.50;;;;;;2252970;61;20375;-56
2024/01/06 01:26:45;0.00;0.00;0.62;0.00;0.00;0.62;4.57;3.57;;;21.10;26.50;;;;;;2252835;61;20398;-53
2024/01/06 01:29:29;0.00;0.00;0.62;0.00;0.00;0.62;6.83;3.00;;;21.10;26.50;;;;;;2252866;61;20562;-54
2024/01/06 01:32:14;0.00;0.00;0.62;0.00;0.00;0.62;3.93;3.07;;;21.10;26.50;;;;;;2252688;61;20430;-55
2024/01/06 01:35:00;0.00;0.00;0.62;0.00;0.00;0.62;3.33;2.47;;;21.10;26.50;;;;;;2252832;61;20371;-56
2024/01/06 01:37:45;0.00;0.00;0.62;0.00;0.00;0.62;3.57;2.57;;;21.20;26.60;;;;;;2252878;61;20379;-57
2024/01/06 01:40:29;0.00;0.00;0.62;0.00;0.00;0.62;4.00;2.83;;;21.10;26.50;;;;;;2252654;61;20422;-55
2024/01/06 01:43:18;0.00;0.00;0.62;0.00;0.00;0.62;4.27;3.47;;;21.20;26.50;;;;;;2252298;61;20363;-52
2024/01/06 01:46:03;0.00;0.00;0.62;0.00;0.00;0.62;2.80;2.40;;;21.10;26.50;;;;;;2253096;61;20347;-52
2024/01/06 01:48:48;0.00;0.00;0.62;0.00;0.00;0.62;4.07;3.13;;;21.20;26.50;;;;;;2252899;61;20414;-55
2024/01/06 01:51:35;0.00;0.00;0.62;0.00;0.00;0.62;4.00;2.73;;;21.20;26.50;;;;;;2252237;61;20410;-53
2024/01/06 01:54:20;0.00;0.00;0.62;0.00;0.00;0.62;3.20;2.63;;;21.20;26.50;;;;;;2252866;61;20406;-56
2024/01/06 01:57:05;0.00;0.00;0.62;0.00;0.00;0.62;3.00;2.43;;;21.10;26.40;;;;;;2252846;61;20535;-55
2024/01/06 01:59:49;0.00;0.00;0.62;0.00;0.00;0.62;3.40;2.53;;;21.10;26.40;;;;;;2252776;61;20374;-57
2024/01/06 02:02:34;0.00;0.00;0.62;0.00;0.00;0.62;3.70;2.53;;;21.20;26.50;;;;;;2252377;61;20379;-56
2024/01/06 02:05:19;0.00;0.00;0.62;0.00;0.00;0.62;3.13;2.60;;;21.20;26.50;;;;;;2252581;61;20983;-57
2024/01/06 02:08:06;0.00;0.00;0.62;0.00;0.00;0.62;3.47;2.13;;;21.20;26.40;;;;;;2252775;61;20387;-56
2024/01/06 02:10:51;0.00;0.00;0.62;0.00;0.00;0.62;3.73;2.87;;;21.20;26.50;;;;;;2252501;61;20387;-55
2024/01/06 02:13:37;0.00;0.00;0.62;0.00;0.00;0.62;3.30;2.87;;;21.20;26.40;;;;;;2252368;61;20387;-56
2024/01/06 02:16:22;0.00;0.00;0.62;0.00;0.00;0.62;3.63;2.90;;;21.20;26.40;;;;;;2252022;61;20374;-60
2024/01/06 02:19:12;0.00;0.00;0.62;0.00;0.00;0.62;3.70;3.23;;;21.20;26.50;;;;;;2346568;45;20767;-57
2024/01/06 02:21:58;0.00;0.00;0.62;0.00;0.00;0.62;5.27;4.13;;;21.20;26.40;;;;;;2357336;53;20433;-58
2024/01/06 02:24:43;0.00;0.00;0.62;0.00;0.00;0.62;4.77;3.70;;;21.20;26.40;;;;;;2252623;61;20402;-60
2024/01/06 02:27:27;0.00;0.00;0.62;0.00;0.00;0.62;5.20;4.37;;;21.20;26.40;;;;;;2271875;58;20451;-61
2024/01/06 02:30:12;0.00;0.00;0.62;0.00;0.00;0.62;6.87;5.30;;;21.20;26.40;;;;;;2296321;58;20394;-60
2024/01/06 02:32:57;0.00;0.00;0.62;0.00;0.00;0.62;6.50;5.00;;;21.20;26.30;;;;;;2252069;61;20410;-61
2024/01/06 02:35:41;0.00;0.00;0.62;0.00;0.00;0.62;5.23;4.73;;;21.10;26.20;;;;;;2252339;61;20409;-59
2024/01/06 02:38:30;0.00;0.00;0.62;0.00;0.00;0.62;7.43;5.10;;;21.10;26.20;;;;;;2251574;61;20946;-60
2024/01/06 02:41:15;0.00;0.00;0.62;0.00;0.00;0.62;5.13;4.63;;;21.20;26.30;;;;;;2252273;61;20422;-60
2024/01/06 02:44:02;0.00;0.00;0.62;0.00;0.00;0.62;5.90;4.93;;;21.20;26.20;;;;;;2387097;45;20906;-61
2024/01/06 02:46:47;0.00;0.00;0.62;0.00;0.00;0.62;7.43;5.50;;;21.10;26.20;;;;;;2346257;53;20378;-59
2024/01/06 02:49:31;0.00;0.00;0.62;0.00;0.00;0.62;6.90;5.17;;;21.10;26.20;;;;;;2251696;61;20425;-59
2024/01/06 02:52:16;0.00;0.00;0.62;0.00;0.00;0.62;5.80;5.13;;;21.10;26.10;;;;;;2251947;61;20486;-60
2024/01/06 02:55:02;0.00;0.00;0.62;0.00;0.00;0.62;6.70;5.67;;;21.10;26.10;;;;;;2326845;53;20405;-60
2024/01/06 02:57:47;0.00;0.00;0.62;0.00;0.00;0.62;8.10;5.70;;;21.10;26.10;;;;;;2251420;61;20379;-61
2024/01/06 03:00:31;0.00;0.00;0.62;0.00;0.00;0.62;7.23;5.27;;;21.00;26.10;;;;;;2251473;61;20438;-61
2024/01/06 03:03:16;0.00;0.00;0.62;0.00;0.00;0.62;6.07;4.73;;;21.10;26.10;;;;;;2251117;61;20395;-58
2024/01/06 03:06:00;0.00;0.00;0.62;0.00;0.00;0.62;6.03;5.23;;;21.00;26.10;;;;;;2251723;61;20400;-58
2024/01/06 03:08:45;0.00;0.00;0.62;0.00;0.00;0.62;6.90;5.50;;;21.00;26.10;;;;;;2252169;61;20371;-59
2024/01/06 03:11:31;0.00;0.00;0.62;0.00;0.00;0.62;5.67;5.17;;;21.00;26.10;;;;;;2251755;61;20382;-56
2024/01/06 03:14:15;0.00;0.00;0.62;0.00;0.00;0.62;6.57;5.60;;;21.00;26.10;;;;;;2252315;61;20417;-60
2024/01/06 03:17:00;0.00;0.00;0.62;0.00;0.00;0.62;5.70;5.00;;;21.00;26.10;;;;;;2393018;45;20402;-59
2024/01/06 03:19:44;0.00;0.00;0.62;0.00;0.00;0.62;5.97;4.70;;;20.90;26.00;;;;;;2251952;61;20371;-61
2024/01/06 03:22:29;0.00;0.00;0.62;0.00;0.00;0.62;7.50;5.07;;;20.90;26.00;;;;;;2251698;61;20430;-56
2024/01/06 03:25:14;0.00;0.00;0.62;0.00;0.00;0.62;5.27;4.73;;;21.00;26.10;;;;;;2251552;61;20904;-58
2024/01/06 03:28:00;0.00;0.00;0.62;0.00;0.00;0.62;8.60;5.80;;;20.90;26.00;;;;;;2364106;45;20394;-59
2024/01/06 03:30:45;0.00;0.00;0.62;0.00;0.00;0.62;6.40;5.57;;;20.90;26.00;;;;;;2252135;61;20402;-59
2024/01/06 03:33:29;0.00;0.00;0.62;0.00;0.00;0.62;6.97;5.30;;;20.90;26.00;;;;;;2251820;61;20394;-58
2024/01/06 03:36:16;0.00;0.00;0.62;0.00;0.00;0.62;6.37;5.73;;;20.90;26.00;;;;;;2252189;61;20363;-59
2024/01/06 03:39:01;0.00;0.00;0.62;0.00;0.00;0.62;6.23;5.00;;;20.90;26.10;;;;;;2252106;61;20375;-58
2024/01/06 03:41:48;0.00;0.00;0.62;0.00;0.00;0.62;6.60;4.93;;;20.90;26.10;;;;;;2251736;61;20386;-57
2024/01/06 03:44:35;0.00;0.00;0.62;0.00;0.00;0.62;4.63;4.23;;;20.90;26.10;;;;;;2251948;61;20378;-60
2024/01/06 03:47:20;0.00;0.00;0.62;0.00;0.00;0.62;6.13;4.57;;;20.80;26.00;;;;;;2251864;61;20402;-59
2024/01/06 03:50:05;0.00;0.00;0.62;0.00;0.00;0.62;6.40;5.00;;;20.80;26.00;;;;;;2251308;61;20894;-61
2024/01/06 03:52:50;0.00;0.00;0.62;0.00;0.00;0.62;6.03;5.43;;;20.80;26.10;;;;;;2385411;45;20479;-60
2024/01/06 03:55:34;0.00;0.00;0.62;0.00;0.00;0.62;4.83;4.30;;;20.80;26.10;;;;;;2251789;61;20397;-58
2024/01/06 03:58:19;0.00;0.00;0.62;0.00;0.00;0.62;5.87;4.60;;;20.80;26.10;;;;;;2252095;61;20387;-56
2024/01/06 04:01:05;0.00;0.00;0.62;0.00;0.00;0.62;5.73;5.17;;;20.70;26.00;;;;;;2382565;45;20394;-59
2024/01/06 04:03:49;0.00;0.00;0.62;0.00;0.00;0.62;5.80;5.00;;;20.80;26.10;;;;;;2300138;53;20367;-60
2024/01/06 04:06:34;0.00;0.00;0.62;0.00;0.00;0.62;6.40;5.17;;;20.80;26.10;;;;;;2251549;61;20401;-60
2024/01/06 04:09:18;0.00;0.00;0.62;0.00;0.00;0.62;5.37;4.63;;;20.70;26.00;;;;;;2252041;61;20764;-57
2024/01/06 04:12:04;0.00;0.00;0.62;0.00;0.00;0.62;5.67;4.97;;;20.70;26.00;;;;;;2305359;58;20478;-58
2024/01/06 04:14:48;0.00;0.00;0.62;0.00;0.00;0.62;4.87;4.30;;;20.70;26.10;;;;;;2252839;58;20374;-56
2024/01/06 04:17:34;0.00;0.00;0.62;0.00;0.00;0.62;5.90;5.23;;;20.70;26.10;;;;;;2251913;61;20779;-57
2024/01/06 04:20:19;0.00;0.00;0.62;0.00;0.00;0.62;6.83;4.83;;;20.70;26.10;;;;;;2251452;61;20387;-56
2024/01/06 04:23:04;0.00;0.00;0.62;0.00;0.00;0.62;6.07;5.07;;;20.70;26.10;;;;;;2382178;45;20442;-56
2024/01/06 04:25:48;0.00;0.00;0.62;0.00;0.00;0.62;7.30;5.60;;;20.70;26.10;;;;;;2251474;58;20770;-60
2024/01/06 04:28:33;0.00;0.00;0.62;0.00;0.00;0.62;6.40;5.10;;;20.70;26.10;;;;;;2250765;61;20363;-58
2024/01/06 04:31:18;0.00;0.00;0.62;0.00;0.00;0.62;6.23;5.07;;;20.60;26.00;;;;;;2251928;61;20478;-57
2024/01/06 04:34:04;0.00;0.00;0.62;0.00;0.00;0.62;5.90;5.37;;;20.60;26.00;;;;;;2251437;61;20371;-58
2024/01/06 04:36:50;0.00;0.00;0.62;0.00;0.00;0.62;6.37;5.00;;;20.60;26.00;;;;;;2251549;61;20401;-60
2024/01/06 04:39:34;0.00;0.00;0.62;0.00;0.00;0.62;6.20;4.97;;;20.60;26.00;;;;;;2251410;61;20398;-60
2024/01/06 04:42:22;0.00;0.00;0.62;0.00;0.00;0.62;6.40;5.50;;;20.60;26.00;;;;;;2251370;61;20906;-57
2024/01/06 04:45:08;0.00;0.00;0.62;0.00;0.00;0.62;6.70;5.50;;;20.50;26.00;;;;;;2252188;61;20798;-56
2024/01/06 04:47:53;0.00;0.00;0.62;0.00;0.00;0.62;7.93;4.80;;;20.60;26.00;;;;;;2252023;61;20378;-59
2024/01/06 04:50:39;0.00;0.00;0.62;0.00;0.00;0.62;6.60;5.90;;;20.60;26.00;;;;;;2251994;61;20932;-58
2024/01/06 04:53:23;0.00;0.00;0.62;0.00;0.00;0.62;6.70;5.83;;;20.50;25.90;;;;;;2251860;61;20402;-58
2024/01/06 04:56:08;0.00;0.00;0.62;0.00;0.00;0.62;7.43;6.30;;;20.50;25.90;;;;;;2251415;61;20826;-56
2024/01/06 04:58:52;0.00;0.00;0.62;0.00;0.00;0.62;7.07;6.30;;;20.50;26.00;;;;;;2252294;61;20387;-58
2024/01/06 05:01:37;0.00;0.00;0.62;0.00;0.00;0.62;8.60;6.43;;;20.50;26.50;;;;;;2251209;61;20402;-61
2024/01/06 05:04:22;0.00;0.00;0.62;0.00;0.00;0.62;7.67;5.70;;;20.50;26.00;;;;;;2251804;61;20409;-59
2024/01/06 05:07:08;0.00;0.00;0.62;0.00;0.00;0.62;6.77;5.50;;;20.50;26.00;;;;;;2252279;61;20386;-63
2024/01/06 05:09:52;0.00;0.00;0.62;0.00;0.00;0.62;6.13;4.93;;;20.40;25.90;;;;;;2251971;61;20426;-60
2024/01/06 05:12:37;0.00;0.00;0.62;0.00;0.00;0.62;6.70;5.30;;;20.40;26.00;;;;;;2251741;61;20363;-57
2024/01/06 05:15:22;0.00;0.00;0.62;0.00;0.00;0.62;6.80;5.70;;;20.40;26.00;;;;;;2252007;61;20414;-60
2024/01/06 05:18:07;0.00;0.00;0.62;0.00;0.00;0.62;6.10;5.50;;;20.40;26.00;;;;;;2251588;61;20365;-58
2024/01/06 05:20:51;0.00;0.00;0.62;0.00;0.00;0.62;6.80;5.30;;;20.40;26.00;;;;;;2252796;61;20378;-59
2024/01/06 05:23:37;0.00;0.00;0.62;0.00;0.00;0.62;5.90;5.30;;;20.40;26.10;;;;;;2252399;61;20378;-64
2024/01/06 05:26:22;0.00;0.00;0.62;0.00;0.00;0.62;6.90;5.60;;;20.40;26.00;;;;;;2252681;61;20510;-59
2024/01/06 05:29:07;0.00;0.00;0.62;0.00;0.00;0.62;7.17;5.60;;;20.40;26.00;;;;;;2252585;61;20507;-57
2024/01/06 05:31:52;0.00;0.00;0.62;0.00;0.00;0.62;5.80;5.20;;;20.40;26.00;;;;;;2252588;61;20834;-58
2024/01/06 05:34:37;0.00;0.00;0.62;0.00;0.00;0.62;6.30;5.17;;;20.40;26.10;;;;;;2252874;61;20360;-59
2024/01/06 05:37:22;0.00;0.00;0.62;0.00;0.00;0.62;6.57;4.83;;;20.30;26.00;;;;;;2252670;61;20359;-58
2024/01/06 05:40:09;0.00;0.00;0.62;0.00;0.00;0.62;6.60;5.87;;;20.30;26.00;;;;;;2252647;61;20350;-58
2024/01/06 05:42:55;0.00;0.00;0.62;0.00;0.00;0.62;6.17;5.20;;;20.30;26.00;;;;;;2252414;61;20399;-60
2024/01/06 05:45:41;0.00;0.00;0.62;0.00;0.00;0.62;7.20;5.70;;;20.30;26.00;;;;;;2252590;61;20835;-57
2024/01/06 05:48:26;0.00;0.00;0.62;0.00;0.00;0.62;7.47;5.87;;;20.30;26.00;;;;;;2252399;61;20938;-60
2024/01/06 05:51:10;0.00;0.00;0.62;0.00;0.00;0.62;6.20;4.90;;;20.30;26.00;;;;;;2252557;61;20402;-60
2024/01/06 05:53:55;0.00;0.00;0.62;0.00;0.00;0.62;6.27;5.23;;;20.30;26.00;;;;;;2252592;61;20434;-58
2024/01/06 05:56:41;0.00;0.00;0.62;0.00;0.00;0.62;6.20;5.60;;;20.30;26.00;;;;;;2252877;61;20428;-60
2024/01/06 05:59:26;0.00;0.00;0.62;0.00;0.00;0.62;6.57;5.60;;;20.30;26.10;;;;;;2252880;61;20869;-55
2024/01/06 06:02:10;0.00;0.00;0.62;0.00;0.00;0.62;5.97;5.10;;;20.30;26.10;;;;;;2251846;61;20398;-57
2024/01/06 06:04:55;0.00;0.00;0.62;0.00;0.00;0.62;6.73;5.67;;;20.30;26.60;;;;;;2252980;61;20367;-58
2024/01/06 06:07:39;0.00;0.00;0.62;0.00;0.00;0.62;6.60;5.67;;;20.30;26.00;;;;;;2252656;61;20366;-58
2024/01/06 06:10:40;0.00;0.00;0.62;0.00;0.00;0.62;6.30;4.93;;;20.30;26.10;;;;;;2252338;61;20382;-58
2024/01/06 06:13:26;0.00;0.00;0.62;0.00;0.00;0.62;6.73;5.10;;;20.20;26.00;;;;;;2252497;61;20849;-57
2024/01/06 06:16:13;0.00;0.00;0.62;0.00;0.00;0.62;6.70;5.70;;;20.20;26.00;;;;;;2252676;61;20375;-58
2024/01/06 06:18:58;0.00;0.00;0.62;0.00;0.00;0.62;7.07;5.83;;;20.20;26.00;;;;;;2252747;61;20363;-58
2024/01/06 06:21:43;0.00;0.00;0.62;0.00;0.00;0.62;8.27;5.53;;;20.20;26.00;;;;;;2252366;61;20390;-58
2024/01/06 06:24:27;0.00;0.00;0.62;0.00;0.00;0.62;6.20;4.87;;;20.20;26.00;;;;;;2252247;61;20429;-57
2024/01/06 06:27:12;0.00;0.00;0.62;0.00;0.00;0.62;6.50;5.40;;;20.20;26.00;;;;;;2252774;61;20363;-60
2024/01/06 06:29:58;0.00;0.00;0.62;0.00;0.00;0.62;6.80;5.27;;;20.20;26.00;;;;;;2252138;61;20424;-56
2024/01/06 06:32:42;0.00;0.00;0.62;0.00;0.00;0.62;6.73;5.50;;;20.20;26.00;;;;;;2251732;61;20790;-59
2024/01/06 06:35:27;0.00;0.00;0.62;0.00;0.00;0.62;6.93;5.60;;;20.20;26.00;;;;;;2252652;61;20813;-57
2024/01/06 06:38:11;0.00;0.00;0.62;0.00;0.00;0.62;6.47;5.67;;;20.20;26.00;;;;;;2252667;61;20426;-58
2024/01/06 06:40:56;0.00;0.00;0.62;0.00;0.00;0.62;6.60;4.87;;;20.20;26.00;;;;;;2252470;61;20433;-58
2024/01/06 06:43:41;0.00;0.00;0.62;0.00;0.00;0.62;7.10;5.73;;;20.20;26.00;;;;;;2252242;61;20362;-56
2024/01/06 06:46:27;0.00;0.00;0.62;0.00;0.00;0.62;7.03;6.33;;;20.20;26.00;;;;;;2252037;61;20386;-58
2024/01/06 06:49:12;0.00;0.00;0.62;0.00;0.00;0.62;6.87;5.70;;;20.20;26.00;;;;;;2252588;61;20374;-56
2024/01/06 06:51:56;0.00;0.00;0.62;0.00;0.00;0.62;7.57;5.90;;;20.20;26.00;;;;;;2251978;61;20394;-58
2024/01/06 06:54:41;0.00;0.00;0.62;0.00;0.00;0.62;8.70;6.37;;;20.20;26.00;;;;;;2252334;61;20406;-61
2024/01/06 06:57:26;0.00;0.00;0.62;0.00;0.00;0.62;6.70;5.43;;;20.20;26.00;;;;;;2252347;61;20975;-58
2024/01/06 07:00:11;0.00;0.00;0.62;0.00;0.00;0.62;8.70;6.83;;;20.20;26.00;;;;;;2252313;61;20958;-59
2024/01/06 07:02:57;0.00;0.00;0.62;0.00;0.00;0.62;7.03;5.90;;;20.20;26.00;;;;;;2251836;61;20391;-58
2024/01/06 07:05:42;0.00;0.00;0.62;0.00;0.00;0.62;8.23;6.60;;;20.10;25.90;;;;;;2252386;61;20428;-59
2024/01/06 07:08:27;0.00;0.00;0.62;0.00;0.00;0.62;8.70;5.90;;;20.10;25.90;;;;;;2252517;61;20402;-59
2024/01/06 07:11:14;0.00;0.00;0.62;0.00;0.00;0.62;7.70;5.80;;;20.10;25.90;;;;;;2252324;61;20715;-60
2024/01/06 07:13:59;0.00;0.00;0.62;0.00;0.00;0.62;8.33;6.40;;;20.20;26.00;;;;;;2252317;61;20363;-58
2024/01/06 07:16:44;0.00;0.00;0.62;0.00;0.00;0.62;7.90;6.20;;;20.10;25.90;;;;;;2578530;45;20468;-58
2024/01/06 07:19:31;0.00;0.00;0.62;0.00;0.00;0.62;6.67;5.70;;;20.10;25.90;;;;;;2248420;61;20371;-59
2024/01/06 07:22:16;0.00;0.00;0.62;0.00;0.00;0.62;8.20;6.60;;;20.10;25.90;;;;;;2247979;61;20411;-58
2024/01/06 07:25:01;0.00;0.00;0.62;0.00;0.00;0.62;7.13;5.97;;;20.10;25.90;;;;;;2248264;61;20370;-58
2024/01/06 07:27:46;0.00;0.00;0.62;0.00;0.00;0.62;6.83;6.13;;;20.10;25.90;;;;;;2248392;61;20504;-58
2024/01/06 07:30:30;0.00;0.00;0.62;0.00;0.00;0.62;7.23;6.43;;;20.10;25.90;;;;;;2248103;61;20927;-58
2024/01/06 07:33:14;0.00;0.00;0.62;0.00;0.00;0.62;7.20;6.00;;;20.10;25.90;;;;;;2248127;61;20419;-56
2024/01/06 07:36:00;0.00;0.00;0.62;0.00;0.00;0.62;7.30;6.33;;;20.10;25.90;;;;;;2248342;61;20462;-56
2024/01/06 07:38:45;0.00;0.00;0.62;0.00;0.00;0.62;7.53;6.07;;;20.10;25.90;;;;;;2247990;61;20832;-59
2024/01/06 07:41:32;0.00;0.00;0.62;0.00;0.00;0.62;7.43;6.60;;;20.10;25.90;;;;;;2248072;61;20387;-60
2024/01/06 07:44:24;0.00;0.00;0.62;0.00;0.00;0.62;8.10;7.00;;;20.10;25.90;;;;;;2248102;61;20380;-58
2024/01/06 07:47:09;0.00;0.00;0.62;0.00;0.00;0.62;7.87;6.93;;;20.10;25.90;;;;;;2248210;61;20379;-55
2024/01/06 07:49:54;0.00;0.00;0.62;0.00;0.00;0.62;9.70;7.03;;;20.00;25.90;;;;;;2247925;61;20799;-58
2024/01/06 07:52:40;0.00;0.00;0.62;0.00;0.00;0.62;9.43;7.20;;;20.00;25.90;;;;;;2248144;61;20348;-57
2024/01/06 07:55:28;0.00;0.00;0.62;0.00;0.00;0.62;10.00;6.30;;;20.00;25.80;;;;;;2248549;61;20384;-56
2024/01/06 07:58:13;0.00;0.00;0.62;0.00;0.00;0.62;9.03;6.80;;;20.00;25.90;;;;;;2248530;61;20956;-54
2024/01/06 08:00:58;0.00;0.00;0.62;0.00;0.00;0.62;6.97;5.57;;;20.00;25.90;;;;;;2248055;61;20387;-60
2024/01/06 08:03:43;0.00;0.00;0.62;0.00;0.00;0.62;8.90;7.03;;;20.00;25.80;;;;;;2248105;61;20383;-58
2024/01/06 08:06:28;0.00;0.00;0.62;0.00;0.00;0.62;8.60;7.27;;;20.00;25.80;;;;;;2248012;61;20452;-57
2024/01/06 08:09:14;0.00;0.00;0.62;0.00;0.00;0.62;8.67;6.90;;;20.00;25.80;;;;;;2247991;61;20367;-52
2024/01/06 08:11:59;0.00;0.00;0.62;0.00;0.00;0.62;7.10;6.00;;;20.00;25.90;;;;;;2247540;61;20426;-57
2024/01/06 08:14:44;0.00;0.00;0.62;0.00;0.00;0.62;7.80;6.20;;;20.00;25.90;;;;;;2249069;61;20786;-58
2024/01/06 08:17:28;0.00;0.00;0.62;0.00;0.00;0.62;8.77;6.53;;;20.00;25.90;;;;;;2249284;61;20914;-62
2024/01/06 08:20:13;0.00;0.00;0.62;0.00;0.00;0.62;8.73;7.10;;;20.00;26.00;;;;;;2252157;61;20823;-59
2024/01/06 08:22:57;0.00;0.00;0.62;0.00;0.00;0.62;7.53;6.10;;;20.00;26.00;;;;;;2251461;61;20395;-63
2024/01/06 08:25:45;0.00;0.00;0.62;0.00;0.00;0.62;10.30;7.10;;;20.00;26.00;;;;;;2252196;61;20774;-64
2024/01/06 08:28:30;0.00;0.00;0.62;0.00;0.00;0.62;8.17;6.67;;;20.00;26.00;;;;;;2252378;61;20354;-61
2024/01/06 08:31:14;0.00;0.00;0.62;0.00;0.00;0.62;7.53;6.60;;;20.00;26.00;;;;;;2251309;61;20442;-63
2024/01/06 08:33:59;0.00;0.00;0.62;0.00;0.00;0.62;8.60;6.70;;;20.00;26.00;;;;;;2252251;61;20367;-62
2024/01/06 08:36:44;0.00;0.00;0.62;0.00;0.00;0.62;6.87;5.80;;;20.00;26.00;;;;;;2252183;61;20378;-61
2024/01/06 08:39:28;0.00;0.00;0.62;0.00;0.00;0.62;8.00;6.77;;;20.00;26.00;;;;;;2251806;61;20796;-60
2024/01/06 08:42:14;0.00;0.00;0.62;0.00;0.00;0.62;7.60;6.33;;;20.00;26.00;;;;;;2251495;61;20962;-62
2024/01/06 08:44:59;0.00;0.00;0.62;0.00;0.00;0.62;9.40;7.23;;;20.00;26.60;;;;;;2251770;61;20414;-61
2024/01/06 08:47:44;0.00;0.00;0.62;0.00;0.00;0.62;10.23;7.00;;;20.00;26.00;;;;;;2252200;61;20433;-62
2024/01/06 08:50:28;0.00;0.00;0.62;0.00;0.00;0.62;9.67;7.40;;;20.00;26.00;;;;;;2252086;61;20474;-62
2024/01/06 08:53:13;0.00;0.00;0.62;0.00;0.00;0.62;8.50;6.87;;;20.00;26.00;;;;;;2251514;61;20394;-60
2024/01/06 08:55:58;0.00;0.00;0.62;0.00;0.00;0.62;9.53;7.30;;;20.00;26.00;;;;;;2252948;61;20461;-61
2024/01/06 08:58:44;0.00;0.00;0.62;0.00;0.00;0.62;9.50;6.47;;;20.00;26.00;;;;;;2252225;61;20378;-60
2024/01/06 09:01:28;0.00;0.00;0.62;0.00;0.00;0.62;8.57;6.20;;;20.00;26.00;;;;;;2252296;61;20931;-59
2024/01/06 09:04:14;0.00;0.00;0.62;0.00;0.00;0.62;9.27;6.57;;;20.00;26.00;;;;;;2252604;61;20421;-62
2024/01/06 09:06:58;0.00;0.00;0.62;0.00;0.00;0.62;9.20;7.73;;;20.00;26.00;;;;;;2252283;61;20413;-60
2024/01/06 09:09:43;0.00;0.00;0.62;0.00;0.00;0.62;8.60;6.83;;;20.00;26.00;;;;;;2252835;61;20775;-63
2024/01/06 09:12:29;0.00;0.00;0.62;0.00;0.00;0.62;8.60;6.30;;;20.00;26.00;;;;;;2252627;61;20363;-60
2024/01/06 09:15:17;0.00;0.00;0.62;0.00;0.00;0.62;8.27;7.30;;;19.90;25.90;;;;;;2252203;61;20802;-61
2024/01/06 09:18:04;0.00;0.00;0.62;0.00;0.00;0.62;8.90;6.77;;;20.00;26.00;;;;;;2252249;61;20425;-62
2024/01/06 09:20:50;0.00;0.00;0.62;0.00;0.00;0.62;7.13;6.40;;;19.90;25.90;;;;;;2252212;61;20442;-56
2024/01/06 09:23:36;0.00;0.00;0.62;0.00;0.00;0.62;9.03;7.50;;;19.90;25.90;;;;;;2251117;61;20399;-61
2024/01/06 09:26:21;0.00;0.00;0.62;0.00;0.00;0.62;9.50;7.07;;;19.90;25.90;;;;;;2252461;61;20374;-56
2024/01/06 09:29:05;0.00;0.00;0.62;0.00;0.00;0.62;14.23;7.10;;;19.90;25.90;;;;;;2252090;61;20503;-58
2024/01/06 09:31:52;0.00;0.00;0.62;0.00;0.00;0.62;9.60;7.03;;;20.00;26.00;;;;;;2252476;61;20962;-60
2024/01/06 09:34:37;0.00;0.00;0.62;0.00;0.00;0.62;6.70;5.30;;;20.00;25.90;;;;;;2251548;61;20417;-53
2024/01/06 09:37:22;0.00;0.00;0.62;0.00;0.00;0.62;6.00;5.40;;;20.00;26.00;;;;;;2252375;61;20363;-58
2024/01/06 09:40:13;0.00;0.00;0.62;0.00;0.00;0.62;6.27;5.50;;;20.00;26.00;;;;;;2252876;61;20425;-57
2024/01/06 09:42:58;0.00;0.00;0.62;0.00;0.00;0.62;8.20;5.60;;;20.00;26.00;;;;;;2252385;61;20398;-54
2024/01/06 09:45:43;0.00;0.00;0.62;0.00;0.00;0.62;5.30;4.27;;;20.00;26.00;;;;;;2252525;61;20373;-57
2024/01/06 09:48:33;0.00;0.00;0.62;0.00;0.00;0.62;6.70;4.60;;;20.00;26.00;;;;;;2252841;61;20409;-53
2024/01/06 09:51:19;0.00;0.00;0.62;0.00;0.00;0.62;5.60;4.17;;;20.00;26.00;;;;;;2252368;61;20792;-58
2024/01/06 09:54:09;0.00;0.00;0.62;0.00;0.00;0.62;4.63;4.23;;;20.00;26.00;;;;;;2252771;61;20926;-56
2024/01/06 09:56:55;0.00;0.00;0.62;0.00;0.00;0.62;4.27;3.63;;;20.00;26.10;;;;;;2252821;61;20367;-57
2024/01/06 09:59:42;0.00;0.00;0.62;0.00;0.00;0.62;4.90;4.40;;;20.00;26.10;;;;;;2252225;61;20413;-58
2024/01/06 10:02:26;0.00;0.00;0.62;0.00;0.00;0.62;4.70;4.03;;;20.00;26.10;;;;;;2252428;61;20934;-53
2024/01/06 10:05:13;0.00;0.00;0.62;0.00;0.00;0.62;6.77;3.97;;;20.00;26.10;;;;;;2252527;61;20394;-52
2024/01/06 10:07:57;0.00;0.00;0.62;0.00;0.00;0.62;5.90;4.00;;;20.00;26.00;;;;;;2252506;61;21026;-53
2024/01/06 10:10:44;0.00;0.00;0.62;0.00;0.00;0.62;5.07;4.00;;;20.00;26.10;;;;;;2252779;61;20471;-57
2024/01/06 10:13:29;0.00;0.00;0.62;0.00;0.00;0.62;6.30;4.60;;;20.00;26.00;;;;;;2252006;61;20371;-56
2024/01/06 10:16:14;0.00;0.00;0.62;0.00;0.00;0.62;5.87;4.70;;;20.00;26.00;;;;;;2252683;61;20766;-51
2024/01/06 10:18:59;0.00;0.00;0.62;0.00;0.00;0.62;4.30;3.70;;;20.00;26.00;;;;;;2252719;61;20451;-53
2024/01/06 10:21:45;0.00;0.00;0.62;0.00;0.00;0.62;4.37;3.80;;;20.00;26.00;;;;;;2251845;61;20383;-57
2024/01/06 10:24:31;0.00;0.00;0.62;0.00;0.00;0.62;4.53;3.90;;;20.10;26.10;;;;;;2252853;61;20783;-54
2024/01/06 10:27:16;0.00;0.00;0.62;0.00;0.00;0.62;4.47;3.50;;;20.10;26.10;;;;;;2252714;61;20435;-54
2024/01/06 10:30:01;0.00;0.00;0.62;0.00;0.00;0.62;4.70;3.53;;;20.10;26.10;;;;;;2252525;61;21024;-55
2024/01/06 10:32:46;0.00;0.00;0.62;0.00;0.00;0.62;5.00;4.10;;;20.10;26.10;;;;;;2252492;61;20766;-62
2024/01/06 10:35:30;0.00;0.00;0.62;0.00;0.00;0.62;5.00;3.90;;;20.10;26.10;;;;;;2252279;61;20351;-58
2024/01/06 10:38:17;0.00;0.00;0.62;0.00;0.00;0.62;4.33;3.40;;;20.10;26.10;;;;;;2252685;61;20367;-57
2024/01/06 10:41:07;0.00;0.00;0.62;0.00;0.00;0.62;4.37;3.40;;;20.10;26.10;;;;;;2252718;61;20406;-56
2024/01/06 10:43:52;0.00;0.00;0.62;0.00;0.00;0.62;4.27;3.37;;;20.10;26.10;;;;;;2251861;61;20434;-54
2024/01/06 10:46:37;0.00;0.00;0.62;0.00;0.00;0.62;4.20;3.47;;;20.10;26.10;;;;;;2252741;61;20482;-55
2024/01/06 10:49:23;0.00;0.00;0.62;0.00;0.00;0.62;4.20;3.40;;;20.10;26.10;;;;;;2252622;61;20409;-54
2024/01/06 10:52:09;0.00;0.00;0.62;0.00;0.00;0.62;4.87;3.30;;;20.10;26.10;;;;;;2251909;61;20402;-56